createdAt,value
2022-10-08T00:01:16.816Z,5.75
2022-10-08T00:03:46.445Z,9.75
2022-10-08T00:06:17.643Z,6.75
2022-10-08T00:08:52.553Z,8.10
2022-10-08T00:11:23.538Z,10.32
2022-10-08T00:13:52.487Z,7.00
2022-10-08T00:16:24.240Z,4.80
2022-10-08T00:18:54.738Z,6.55
2022-10-08T00:21:25.171Z,5.30
2022-10-08T00:23:53.615Z,5.15
2022-10-08T00:26:25.897Z,5.20
2022-10-08T00:28:55.495Z,8.27
2022-10-08T00:31:28.635Z,3.45
2022-10-08T00:33:57.538Z,5.85
2022-10-08T00:36:27.501Z,4.38
2022-10-08T00:38:56.267Z,3.88
2022-10-08T00:41:27.070Z,2.63
2022-10-08T00:43:57.126Z,7.75
2022-10-08T00:46:44.206Z,6.07
2022-10-08T00:49:20.814Z,4.03
2022-10-08T00:51:54.512Z,3.00
2022-10-08T00:54:23.478Z,2.58
2022-10-08T00:56:53.500Z,4.10
2022-10-08T00:59:21.002Z,3.92
2022-10-08T01:01:48.117Z,2.47
2022-10-08T01:04:16.035Z,3.60
2022-10-08T01:06:54.859Z,6.28
2022-10-08T01:09:38.289Z,3.53
2022-10-08T01:12:23.875Z,1.75
2022-10-08T01:15:15.184Z,1.85
2022-10-08T01:17:49.781Z,3.85
2022-10-08T01:21:15.606Z,5.97
2022-10-08T01:23:51.542Z,2.22
2022-10-08T01:26:45.849Z,2.10
2022-10-08T01:29:29.583Z,2.97
2022-10-08T01:32:04.528Z,3.47
2022-10-08T01:34:41.174Z,3.05
2022-10-08T01:37:13.039Z,6.43
2022-10-08T01:39:41.253Z,1.30
2022-10-08T01:42:11.126Z,1.23
2022-10-08T01:44:43.244Z,1.95
2022-10-08T01:47:16.154Z,1.95
2022-10-08T01:49:49.978Z,2.17
2022-10-08T01:55:12.438Z,2.38
2022-10-08T01:57:40.368Z,3.97
2022-10-08T02:00:13.548Z,4.15
2022-10-08T02:02:41.942Z,8.18
2022-10-08T02:05:11.057Z,1.80
2022-10-08T02:07:44.338Z,5.72
2022-10-08T02:10:11.255Z,2.88
2022-10-08T02:12:40.175Z,12.77
2022-10-08T02:15:21.376Z,4.40
2022-10-08T02:18:11.729Z,3.47
2022-10-08T02:21:01.832Z,7.53
2022-10-08T02:23:37.843Z,3.25
2022-10-08T02:26:08.287Z,3.33
2022-10-08T02:28:48.495Z,6.30
2022-10-08T02:31:45.125Z,6.90
2022-10-08T02:34:18.679Z,3.22
2022-10-08T02:36:52.503Z,6.53
2022-10-08T02:41:53.633Z,4.35
2022-10-08T02:44:28.158Z,10.45
2022-10-08T02:46:59.275Z,5.60
2022-10-08T02:49:31.548Z,6.43
2022-10-08T02:52:04.260Z,5.35
2022-10-08T02:54:38.212Z,7.07
2022-10-08T02:57:13.908Z,7.45
2022-10-08T02:59:42.124Z,7.32
2022-10-08T03:02:12.117Z,6.15
2022-10-08T03:04:41.184Z,5.90
2022-10-08T03:07:09.547Z,10.65
2022-10-08T03:09:40.670Z,7.53
2022-10-08T03:12:07.738Z,10.32
2022-10-08T03:14:39.293Z,7.95
2022-10-08T03:17:12.686Z,7.70
2022-10-08T03:19:39.709Z,11.18
2022-10-08T03:22:07.744Z,11.98
2022-10-08T03:24:35.942Z,14.85
2022-10-08T03:27:04.434Z,9.90
2022-10-08T03:29:31.508Z,8.40
2022-10-08T03:31:58.553Z,10.73
2022-10-08T03:34:25.911Z,14.18
2022-10-08T03:36:53.060Z,7.10
2022-10-08T03:39:22.525Z,7.28
2022-10-08T03:41:49.499Z,7.20
2022-10-08T03:44:16.483Z,10.30
2022-10-08T03:46:43.489Z,13.20
2022-10-08T03:49:10.492Z,11.68
2022-10-08T03:51:37.650Z,6.90
2022-10-08T03:54:04.850Z,9.88
2022-10-08T03:56:32.146Z,7.22
2022-10-08T03:59:00.214Z,10.32
2022-10-08T04:01:28.346Z,10.57
2022-10-08T04:03:55.543Z,7.30
2022-10-08T04:06:23.324Z,10.88
2022-10-08T04:08:51.072Z,9.43
2022-10-08T04:11:19.135Z,8.63
2022-10-08T04:13:46.161Z,10.13
2022-10-08T04:16:15.461Z,7.10
2022-10-08T04:18:43.709Z,10.98
2022-10-08T04:21:14.896Z,9.05
2022-10-08T04:23:43.520Z,7.75
2022-10-08T04:26:12.823Z,8.88
2022-10-08T04:28:41.541Z,10.20
2022-10-08T04:31:12.438Z,10.85
2022-10-08T04:33:39.799Z,8.40
2022-10-08T04:36:33.910Z,15.98
2022-10-08T04:39:00.959Z,14.05
2022-10-08T04:41:28.060Z,13.52
2022-10-08T04:44:02.858Z,11.13
2022-10-08T04:46:30.297Z,11.27
2022-10-08T04:48:57.464Z,6.85
2022-10-08T04:51:25.997Z,9.02
2022-10-08T04:53:54.985Z,9.85
2022-10-08T04:56:25.125Z,11.95
2022-10-08T04:58:55.177Z,11.77
2022-10-08T05:01:23.761Z,12.43
2022-10-08T05:03:52.969Z,7.75
2022-10-08T05:06:23.147Z,13.38
2022-10-08T05:08:51.751Z,7.53
2022-10-08T05:11:19.835Z,8.18
2022-10-08T05:13:54.461Z,6.30
2022-10-08T05:16:23.058Z,8.30
2022-10-08T05:18:51.975Z,8.93
2022-10-08T05:21:22.199Z,8.57
2022-10-08T05:23:58.904Z,9.23
2022-10-08T05:26:56.267Z,13.82
2022-10-08T05:29:17.072Z,11.10
2022-10-08T05:31:44.784Z,9.05
2022-10-08T05:34:15.359Z,9.73
2022-10-08T05:36:42.469Z,9.95
2022-10-08T05:39:10.381Z,8.15
2022-10-08T05:41:39.958Z,14.90
2022-10-08T05:44:08.334Z,21.60
2022-10-08T05:46:36.537Z,11.98
2022-10-08T05:49:06.866Z,13.55
2022-10-08T05:51:34.594Z,16.40
2022-10-08T05:54:01.582Z,6.93
2022-10-08T05:56:29.269Z,8.82
2022-10-08T05:58:56.484Z,11.43
2022-10-08T06:01:29.635Z,7.20
2022-10-08T06:04:08.025Z,8.68
2022-10-08T06:06:37.777Z,11.43
2022-10-08T06:09:06.457Z,9.60
2022-10-08T06:11:35.731Z,6.30
2022-10-08T06:14:04.629Z,7.72
2022-10-08T06:16:31.834Z,17.80
2022-10-08T06:18:59.812Z,8.73
2022-10-08T06:21:27.068Z,14.80
2022-10-08T06:23:59.985Z,8.23
2022-10-08T06:26:35.137Z,5.87
2022-10-08T06:29:05.593Z,6.60
2022-10-08T06:31:34.883Z,6.70
2022-10-08T06:34:05.203Z,10.60
2022-10-08T06:36:34.015Z,6.95
2022-10-08T06:39:05.041Z,6.70
2022-10-08T06:41:35.100Z,10.07
2022-10-08T06:44:07.440Z,6.03
2022-10-08T06:46:35.397Z,6.57
2022-10-08T06:49:03.293Z,7.57
2022-10-08T06:51:30.527Z,6.28
2022-10-08T06:54:04.421Z,9.73
2022-10-08T06:56:35.843Z,8.27
2022-10-08T06:59:04.687Z,5.32
2022-10-08T07:01:33.696Z,7.22
2022-10-08T07:04:02.225Z,6.18
2022-10-08T07:06:29.815Z,4.55
2022-10-08T07:08:59.469Z,4.30
2022-10-08T07:11:27.975Z,5.00
2022-10-08T07:13:56.242Z,6.35
2022-10-08T07:16:25.547Z,4.45
2022-10-08T07:18:53.869Z,6.13
2022-10-08T07:21:22.288Z,5.32
2022-10-08T07:23:50.197Z,7.03
2022-10-08T07:26:23.266Z,4.25
2022-10-08T07:28:53.599Z,4.53
2022-10-08T07:31:23.650Z,6.78
2022-10-08T07:33:50.770Z,5.75
2022-10-08T07:36:20.496Z,7.32
2022-10-08T07:38:48.163Z,5.25
2022-10-08T07:41:15.239Z,5.75
2022-10-08T07:43:43.101Z,3.58
2022-10-08T07:46:12.031Z,6.43
2022-10-08T07:48:39.866Z,4.45
2022-10-08T07:51:11.326Z,5.40
2022-10-08T07:53:39.609Z,4.22
2022-10-08T07:56:07.914Z,7.57
2022-10-08T07:58:35.396Z,10.15
2022-10-08T08:01:04.378Z,3.47
2022-10-08T08:03:31.643Z,5.18
2022-10-08T08:06:03.795Z,8.45
2022-10-08T08:08:30.985Z,9.43
2022-10-08T08:10:59.211Z,5.32
2022-10-08T08:13:26.311Z,6.55
2022-10-08T08:16:01.236Z,13.57
2022-10-08T08:18:29.997Z,5.78
2022-10-08T08:21:08.718Z,7.25
2022-10-08T08:23:47.377Z,3.90
2022-10-08T08:26:25.450Z,7.13
2022-10-08T08:28:55.078Z,5.53
2022-10-08T08:31:23.615Z,7.20
2022-10-08T08:33:53.734Z,7.05
2022-10-08T08:36:25.519Z,5.68
2022-10-08T08:38:52.588Z,7.70
2022-10-08T08:41:56.089Z,7.95
2022-10-08T08:44:34.188Z,2.55
2022-10-08T08:47:12.349Z,5.18
2022-10-08T08:49:45.480Z,9.20
2022-10-08T08:52:19.218Z,4.53
2022-10-08T08:57:37.252Z,5.47
2022-10-08T09:00:15.265Z,2.67
2022-10-08T09:03:05.236Z,2.80
2022-10-08T09:05:40.587Z,5.57
2022-10-08T09:08:15.888Z,3.90
2022-10-08T09:10:49.996Z,2.22
2022-10-08T09:13:21.119Z,2.05
2022-10-08T09:15:48.222Z,8.13
2022-10-08T09:18:16.355Z,6.68
2022-10-08T09:20:44.288Z,8.10
2022-10-08T09:23:20.371Z,2.53
2022-10-08T09:25:55.709Z,2.60
2022-10-08T09:28:44.678Z,6.65
2022-10-08T09:31:19.686Z,6.32
2022-10-08T09:34:05.779Z,4.22
2022-10-08T09:36:35.115Z,6.55
2022-10-08T09:39:06.813Z,3.00
2022-10-08T09:41:33.889Z,3.10
2022-10-08T09:44:15.050Z,7.82
2022-10-08T09:46:42.187Z,3.38
2022-10-08T09:49:26.187Z,6.50
2022-10-08T09:51:55.653Z,1.95
2022-10-08T09:54:28.992Z,6.28
2022-10-08T09:56:59.798Z,6.18
2022-10-08T09:59:34.440Z,4.55
2022-10-08T10:02:02.164Z,7.65
2022-10-08T10:04:36.378Z,5.90
2022-10-08T10:07:04.651Z,5.40
2022-10-08T10:09:49.513Z,4.53
2022-10-08T10:12:32.496Z,3.45
2022-10-08T10:15:15.405Z,4.40
2022-10-08T10:17:52.523Z,4.70
2022-10-08T10:20:35.721Z,5.63
2022-10-08T10:23:12.854Z,4.73
2022-10-08T10:25:48.559Z,4.63
2022-10-08T10:28:43.054Z,5.60
2022-10-08T10:31:12.865Z,3.83
2022-10-08T10:33:54.437Z,8.15
2022-10-08T10:36:25.389Z,5.30
2022-10-08T10:39:04.140Z,6.43
2022-10-08T10:41:43.406Z,2.35
2022-10-08T10:44:13.987Z,3.22
2022-10-08T10:46:49.651Z,5.35
2022-10-08T10:49:29.127Z,8.65
2022-10-08T10:52:34.106Z,5.93
2022-10-08T10:55:19.839Z,2.25
2022-10-08T10:57:49.905Z,2.28
2022-10-08T11:00:23.510Z,3.90
2022-10-08T11:03:29.505Z,3.83
2022-10-08T11:06:39.843Z,3.55
2022-10-08T11:09:30.050Z,5.13
2022-10-08T11:12:20.623Z,3.10
2022-10-08T11:14:55.629Z,2.83
2022-10-08T11:17:41.016Z,2.97
2022-10-08T11:20:24.282Z,4.63
2022-10-08T11:23:07.544Z,2.90
2022-10-08T11:26:10.733Z,1.88
2022-10-08T11:28:43.118Z,6.78
2022-10-08T11:31:28.065Z,3.88
2022-10-08T11:33:56.335Z,3.10
2022-10-08T11:36:35.289Z,3.05
2022-10-08T11:39:21.584Z,5.93
2022-10-08T11:42:10.190Z,6.55
2022-10-08T11:44:37.615Z,6.47
2022-10-08T11:47:35.420Z,7.38
2022-10-08T11:50:05.724Z,5.18
2022-10-08T11:52:33.978Z,2.45
2022-10-08T11:55:02.084Z,4.47
2022-10-08T11:58:07.329Z,6.03
2022-10-08T12:00:45.476Z,6.10
2022-10-08T12:03:28.195Z,4.97
2022-10-08T12:06:00.179Z,5.65
2022-10-08T12:08:51.304Z,7.03
2022-10-08T12:11:35.405Z,7.72
2022-10-08T12:17:04.587Z,4.65
2022-10-08T12:19:37.122Z,5.05
2022-10-08T12:22:06.936Z,3.13
2022-10-08T12:24:39.781Z,2.30
2022-10-08T12:27:39.624Z,7.43
2022-10-08T12:30:11.943Z,5.40
2022-10-08T12:32:41.732Z,3.78
2022-10-08T12:35:29.298Z,1.95
2022-10-08T12:38:14.955Z,1.92
2022-10-08T12:41:15.571Z,7.13
2022-10-08T12:44:07.582Z,3.65
2022-10-08T12:46:52.633Z,2.58
2022-10-08T12:49:27.392Z,1.85
2022-10-08T12:52:05.697Z,4.78
2022-10-08T12:54:33.444Z,6.53
2022-10-08T12:57:07.322Z,4.53
2022-10-08T12:59:35.553Z,4.15
2022-10-08T13:02:02.643Z,3.78
2022-10-08T13:04:33.823Z,5.82
2022-10-08T13:07:23.918Z,8.00
2022-10-08T13:09:59.018Z,3.13
2022-10-08T13:12:26.543Z,6.57
2022-10-08T13:15:03.689Z,9.57
2022-10-08T13:17:34.112Z,6.55
2022-10-08T13:20:18.170Z,10.88
2022-10-08T13:25:36.126Z,6.35
2022-10-08T13:28:59.505Z,5.10
2022-10-08T13:31:23.745Z,3.08
2022-10-08T13:33:51.196Z,4.90
2022-10-08T13:36:23.692Z,3.13
2022-10-08T13:38:50.804Z,2.85
2022-10-08T13:41:23.839Z,5.18
2022-10-08T13:43:51.263Z,4.13
2022-10-08T13:46:18.419Z,3.83
2022-10-08T13:48:45.680Z,4.95
2022-10-08T13:51:12.702Z,4.70
2022-10-08T13:53:45.402Z,2.92
2022-10-08T13:56:12.550Z,2.25
2022-10-08T13:58:39.792Z,4.38
2022-10-08T14:01:06.971Z,3.28
2022-10-08T14:03:34.042Z,6.35
2022-10-08T14:06:01.053Z,7.32
2022-10-08T14:08:30.133Z,2.08
2022-10-08T14:10:58.313Z,5.30
2022-10-08T14:13:26.048Z,5.60
2022-10-08T14:15:53.395Z,4.70
2022-10-08T14:18:20.487Z,1.77
2022-10-08T14:20:50.943Z,8.90
2022-10-08T14:23:18.990Z,0.60
2022-10-08T14:25:46.436Z,2.30
2022-10-08T14:28:13.557Z,3.92
2022-10-08T14:30:40.620Z,3.78
2022-10-08T14:33:11.244Z,2.80
2022-10-08T14:35:39.450Z,7.22
2022-10-08T14:38:06.656Z,4.00
2022-10-08T14:40:33.783Z,1.48
2022-10-08T14:43:01.012Z,2.63
2022-10-08T14:45:28.150Z,6.68
2022-10-08T14:47:55.204Z,3.53
2022-10-08T14:50:22.417Z,5.05
2022-10-08T14:52:49.750Z,3.58
2022-10-08T14:55:17.042Z,7.78
2022-10-08T14:57:44.115Z,7.30
2022-10-08T15:00:13.097Z,1.75
2022-10-08T15:02:40.385Z,3.47
2022-10-08T15:05:07.906Z,4.32
2022-10-08T15:07:34.922Z,5.07
2022-10-08T15:10:02.204Z,3.17
2022-10-08T15:12:29.212Z,6.35
2022-10-08T15:14:56.317Z,5.13
2022-10-08T15:17:25.979Z,3.45
2022-10-08T15:19:53.358Z,3.90
2022-10-08T15:22:20.427Z,6.53
2022-10-08T15:24:47.412Z,6.78
2022-10-08T15:27:19.860Z,7.85
2022-10-08T15:29:47.913Z,3.83
2022-10-08T15:32:15.910Z,3.53
2022-10-08T15:34:42.988Z,7.80
2022-10-08T15:37:09.981Z,3.15
2022-10-08T15:39:37.296Z,5.78
2022-10-08T15:42:04.341Z,2.85
2022-10-08T15:44:32.332Z,5.35
2022-10-08T15:47:06.041Z,3.83
2022-10-08T15:52:02.121Z,2.95
2022-10-08T15:54:29.165Z,10.10
2022-10-08T15:56:56.169Z,7.43
2022-10-08T15:59:23.722Z,6.38
2022-10-08T16:01:50.765Z,2.25
2022-10-08T16:04:17.784Z,5.07
2022-10-08T16:06:45.476Z,7.43
2022-10-08T16:09:14.881Z,2.75
2022-10-08T16:11:43.274Z,5.97
2022-10-08T16:14:13.001Z,7.93
2022-10-08T16:16:40.177Z,6.38
2022-10-08T16:19:10.743Z,2.20
2022-10-08T16:21:38.666Z,10.30
2022-10-08T16:24:06.533Z,2.47
2022-10-08T16:26:34.557Z,7.25
2022-10-08T16:29:05.058Z,7.63
2022-10-08T16:31:33.912Z,4.75
2022-10-08T16:34:03.725Z,10.38
2022-10-08T16:36:36.483Z,7.10
2022-10-08T16:39:06.127Z,4.60
2022-10-08T16:41:35.032Z,6.70
2022-10-08T16:44:21.006Z,4.60
2022-10-08T16:46:51.136Z,5.05
2022-10-08T16:49:26.298Z,7.57
2022-10-08T16:52:00.312Z,8.23
2022-10-08T16:54:28.385Z,4.72
2022-10-08T16:56:55.820Z,5.97
2022-10-08T16:59:24.805Z,5.70
2022-10-08T17:01:57.492Z,4.90
2022-10-08T17:04:27.156Z,4.65
2022-10-08T17:06:54.459Z,3.45
2022-10-08T17:09:22.228Z,9.77
2022-10-08T17:11:49.847Z,6.70
2022-10-08T17:14:16.988Z,7.68
2022-10-08T17:16:44.972Z,6.97
2022-10-08T17:19:12.180Z,10.02
2022-10-08T17:21:39.801Z,7.35
2022-10-08T17:24:07.230Z,16.75
2022-10-08T17:26:34.355Z,20.45
2022-10-08T17:29:07.519Z,6.88
2022-10-08T17:31:35.958Z,7.60
2022-10-08T17:34:04.084Z,6.78
2022-10-08T17:36:34.060Z,5.60
2022-10-08T17:39:03.556Z,5.28
2022-10-08T17:41:33.744Z,7.93
2022-10-08T17:44:03.539Z,9.35
2022-10-08T17:46:33.902Z,10.10
2022-10-08T17:49:01.133Z,9.50
2022-10-08T17:51:30.242Z,14.63
2022-10-08T17:54:01.055Z,7.15
2022-10-08T17:56:31.372Z,13.30
2022-10-08T17:59:01.345Z,6.50
2022-10-08T18:01:33.843Z,16.13
2022-10-08T18:04:09.173Z,11.20
2022-10-08T18:06:42.951Z,8.95
2022-10-08T18:09:16.470Z,13.65
2022-10-08T18:11:46.223Z,5.38
2022-10-08T18:14:13.547Z,8.63
2022-10-08T18:16:44.273Z,8.73
2022-10-08T18:19:14.108Z,9.65
2022-10-08T18:21:41.117Z,12.75
2022-10-08T18:24:08.182Z,12.63
2022-10-08T18:26:36.769Z,11.45
2022-10-08T18:29:08.993Z,9.65
2022-10-08T18:31:37.297Z,9.73
2022-10-08T18:34:11.450Z,16.88
2022-10-08T18:36:39.753Z,13.15
2022-10-08T18:39:12.279Z,9.98
2022-10-08T18:41:42.024Z,13.07
2022-10-08T18:44:12.717Z,6.95
2022-10-08T18:46:44.715Z,10.38
2022-10-08T18:49:19.584Z,11.98
2022-10-08T18:51:49.107Z,8.93
2022-10-08T18:54:16.149Z,15.20
2022-10-08T18:56:43.397Z,9.90
2022-10-08T18:59:15.257Z,8.43
2022-10-08T19:01:45.269Z,10.90
2022-10-08T19:04:15.279Z,12.18
2022-10-08T19:06:44.414Z,12.05
2022-10-08T19:09:11.476Z,13.68
2022-10-08T19:11:50.969Z,7.90
2022-10-08T19:14:20.499Z,14.02
2022-10-08T19:16:48.005Z,15.35
2022-10-08T19:19:23.585Z,20.63
2022-10-08T19:21:50.633Z,18.38
2022-10-08T19:24:19.999Z,23.83
2022-10-08T19:26:47.728Z,17.95
2022-10-08T19:29:20.117Z,21.02
2022-10-08T19:31:48.000Z,18.98
2022-10-08T19:34:19.693Z,17.92
2022-10-08T19:36:46.761Z,14.88
2022-10-08T19:39:16.780Z,14.70
2022-10-08T19:41:43.903Z,18.30
2022-10-08T19:44:11.807Z,13.38
2022-10-08T19:46:38.899Z,11.65
2022-10-08T19:49:07.738Z,11.75
2022-10-08T19:51:35.939Z,13.18
2022-10-08T19:54:03.594Z,13.38
2022-10-08T19:56:31.163Z,8.73
2022-10-08T19:58:58.923Z,6.82
2022-10-08T20:01:29.401Z,10.32
2022-10-08T20:03:59.348Z,9.68
2022-10-08T20:06:29.305Z,8.55
2022-10-08T20:08:59.372Z,9.23
2022-10-08T20:11:27.861Z,9.43
2022-10-08T20:13:55.333Z,8.95
2022-10-08T20:16:28.317Z,11.07
2022-10-08T20:18:59.453Z,12.95
2022-10-08T20:21:29.330Z,12.55
2022-10-08T20:23:56.524Z,18.00
2022-10-08T20:26:26.319Z,28.15
2022-10-08T20:28:57.612Z,31.35
2022-10-08T20:31:31.692Z,32.53
2022-10-08T20:34:07.329Z,27.05
2022-10-08T20:36:34.675Z,18.63
2022-10-08T20:39:02.344Z,15.02
2022-10-08T20:41:31.229Z,14.48
2022-10-08T20:44:03.501Z,16.35
2022-10-08T20:46:32.269Z,9.65
2022-10-08T20:49:02.234Z,13.18
2022-10-08T20:51:30.203Z,17.58
2022-10-08T20:54:08.108Z,8.48
2022-10-08T20:56:39.834Z,11.13
2022-10-08T20:59:15.385Z,13.27
2022-10-08T21:01:42.600Z,17.48
2022-10-08T21:04:09.745Z,15.38
2022-10-08T21:06:39.717Z,15.60
2022-10-08T21:09:07.012Z,16.15
2022-10-08T21:11:34.712Z,11.55
2022-10-08T21:14:05.666Z,10.50
2022-10-08T21:16:36.449Z,20.73
2022-10-08T21:19:10.485Z,19.10
2022-10-08T21:21:37.799Z,14.65
2022-10-08T21:24:05.074Z,13.00
2022-10-08T21:26:35.284Z,11.05
2022-10-08T21:29:05.056Z,13.32
2022-10-08T21:31:34.042Z,19.42
2022-10-08T21:34:02.040Z,12.57
2022-10-08T21:36:32.052Z,18.38
2022-10-08T21:39:00.322Z,17.85
2022-10-08T21:41:32.521Z,10.20
2022-10-08T21:44:02.199Z,14.07
2022-10-08T21:46:32.784Z,10.80
2022-10-08T21:49:02.753Z,12.13
2022-10-08T21:51:31.152Z,15.52
2022-10-08T21:54:00.361Z,10.23
2022-10-08T21:56:30.377Z,8.30
2022-10-08T21:59:00.216Z,12.13
2022-10-08T22:01:29.280Z,12.50
2022-10-08T22:04:03.214Z,12.75
2022-10-08T22:09:02.101Z,9.80
2022-10-08T22:11:29.116Z,16.20
2022-10-08T22:13:56.135Z,10.00
2022-10-08T22:16:26.134Z,14.38
2022-10-08T22:18:53.603Z,9.82
2022-10-08T22:21:22.487Z,11.20
2022-10-08T22:23:51.275Z,19.50
2022-10-08T22:26:30.462Z,15.80
2022-10-08T22:28:58.289Z,8.65
2022-10-08T22:31:25.638Z,18.80
2022-10-08T22:33:53.777Z,9.10
2022-10-08T22:36:26.244Z,5.15
2022-10-08T22:38:57.274Z,12.07
2022-10-08T22:41:27.348Z,8.65
2022-10-08T22:43:54.818Z,8.13
2022-10-08T22:46:24.883Z,7.25
2022-10-08T22:48:52.388Z,6.85
2022-10-08T22:51:23.856Z,13.35
2022-10-08T22:53:50.861Z,6.97
2022-10-08T22:56:21.141Z,7.30
2022-10-08T22:58:48.696Z,10.73
2022-10-08T23:01:23.439Z,10.00
2022-10-08T23:03:51.309Z,11.05
2022-10-08T23:06:22.506Z,9.27
2022-10-08T23:08:57.361Z,12.45
2022-10-08T23:11:24.870Z,9.27
2022-10-08T23:13:53.486Z,11.60
2022-10-08T23:16:21.316Z,8.23
2022-10-08T23:18:54.166Z,9.63
2022-10-08T23:21:21.260Z,8.85
2022-10-08T23:23:49.756Z,8.32
2022-10-08T23:26:17.554Z,9.82
2022-10-08T23:28:45.660Z,7.72
2022-10-08T23:31:15.626Z,6.68
2022-10-08T23:33:44.999Z,7.55
2022-10-08T23:36:14.736Z,13.35
2022-10-08T23:38:41.877Z,11.50
2022-10-08T23:41:13.177Z,13.93
2022-10-08T23:43:42.906Z,6.97
2022-10-08T23:46:12.872Z,7.10
2022-10-08T23:48:40.998Z,7.97
2022-10-08T23:51:09.975Z,12.32
2022-10-08T23:53:38.787Z,7.65
2022-10-08T23:56:07.320Z,7.50
2022-10-08T23:58:34.952Z,6.32
